EGNTEGPF

Guest
Details From EGNT - Newcastle
To EGPF - Glasgow
Flight Number -
Tags generated
Created
Modified
Stats Distance 106 nm / 196 km
Max Altitude 12,700 ft / 3,871 m
Waypoints 3
Social Downloads 5
Likes 0
Share VATSIM

Download

Looking for another format? Having issues loading an existing format? Contact us
Advertisement - Login to hide

Notes

Basic altitude profile: - Ascent Rate: 2500ft/min - Ascent Speed: 250kts - Cruise Altitude: 35000ft - Cruise Speed: 420kts - Descent Rate: 1500ft/min - Descent Speed: 250kts Options: - Use NATs: yes - Use PACOTS: yes - Use low airways: yes - Use high airways: yes

Route

EGNT TLA25 EGPF

ID Type Via Altitude Latitude Longitude Leg Dist Tot Dist Heading (true) Name
O EGNT APT - 0 ft / 0 m 55.03792˚ -1.68983˚ - 0 nm - Newcastle
TLA25 FIX - 12,700 ft / 3,871 m 55.34813˚ -2.67095˚ 38 nm 38 nm 299° / 299° -
O EGPF APT - 0 ft / 0 m 55.87173˚ -4.43365˚ 67 nm 106 nm 298° / 297° Glasgow

Altitude Profile

Advertisement - Login to hide

EGNT

Details ICAO EGNT (NCL)
Name Newcastle
Region United Kingdom
Timezone Europe/London (UTC+1.0)
Stats Elevation 266 ft / 81 m (AMSL)
Location 55.037922° -1.689833°
Runways 1
Magnetic Variation 1.407° W

METAR

EGNT 221950Z 01008KT 9999 BKN011 09/07 Q1025

Decode

TAF

TAF EGNT 221702Z 2218/2318 02008KT 9999 BKN012 BECMG 2218/2221 6000 BKN006 TEMPO 2221/2309 3000 BR BKN003 PROB40 TEMPO 2300/2308 1400 BKN001 TEMPO 2311/2317 SCT008 BKN011

Decode

Departure Runways

ID Width Length Bearing (true) Bearing (mag) Surface Threshold Offset Overrun Length
07 151 ft / 46 m 7,621 ft / 2,323 m 65.13° 66.54° Asphalt 394 ft / 120 m 108 ft / 33 m
25 151 ft / 46 m 7,621 ft / 2,323 m 245.16° 246.57° Asphalt 446 ft / 136 m 56 ft / 17 m

EGPF

Details ICAO EGPF (GLA)
Name Glasgow
Region United Kingdom
Timezone Europe/London (UTC+1.0)
Stats Elevation 26 ft / 8 m (AMSL)
Location 55.871728° -4.433648°
Runways 1
Magnetic Variation 2.657° W

METAR

EGPF 221950Z AUTO 09012KT 9999 BKN022 12/07 Q1025

Decode

TAF

TAF EGPF 221658Z 2218/2318 08009KT 9999 SCT020 PROB40 TEMPO 2223/2307 8000 BKN014

Decode

Destination Runways

ID Width Length Bearing (true) Bearing (mag) Surface Threshold Offset Overrun Length
05 151 ft / 46 m 8,721 ft / 2,658 m 46.34° 49.00° Asphalt 0 ft / 0 m 499 ft / 152 m
23 151 ft / 46 m 8,721 ft / 2,658 m 226.37° 229.03° Asphalt 1,004 ft / 306 m 0 ft / 0 m

Approach Navaids

Runway Type Ident Frequency Range Bearing (true) Bearing (mag) Slope Elevation
05 Localiser IUU 110.10 MHz 18 nm / 33 km 46.37° 49.03° - 26 ft / 8 m (AMSL)
05 Glidescope IUU 110.10 MHz 10 nm / 19 km 46.36° 49.01° 3.00° 52 ft / 16 m (AMSL)
05 DME IUU 110.10 MHz 18 nm / 33 km - - - 25 ft / 8 m (AMSL)
23 Localiser IOO 110.10 MHz 18 nm / 33 km 226.33° 228.99° - 26 ft / 8 m (AMSL)
23 Glidescope IOO 110.10 MHz 10 nm / 19 km 226.36° 229.01° 3.00° 50 ft / 15 m (AMSL)
23 DME IOO 110.10 MHz 18 nm / 33 km - - - 25 ft / 8 m (AMSL)

Popular Alternatives